createdAt,value
2018-01-27T00:00:53.756Z,101414.89
2018-01-27T00:03:21.173Z,101414.47
2018-01-27T00:05:48.581Z,101421.20
2018-01-27T00:08:16.001Z,101420.30
2018-01-27T00:10:43.450Z,101427.06
2018-01-27T00:13:10.877Z,101427.96
2018-01-27T00:15:38.314Z,101432.67
2018-01-27T00:18:05.731Z,101432.70
2018-01-27T00:20:33.146Z,101428.84
2018-01-27T00:23:00.553Z,101431.80
2018-01-27T00:25:27.982Z,101435.94
2018-01-27T00:27:55.397Z,101434.06
2018-01-27T00:30:22.825Z,101434.56
2018-01-27T00:32:50.240Z,101437.55
2018-01-27T00:35:17.644Z,101432.50
2018-01-27T00:37:45.072Z,101436.80
2018-01-27T00:40:12.481Z,101440.06
2018-01-27T00:42:39.886Z,101445.30
2018-01-27T00:45:07.305Z,101450.53
2018-01-27T00:47:34.712Z,101449.41
2018-01-27T00:50:02.133Z,101441.67
2018-01-27T00:52:29.532Z,101441.61
2018-01-27T00:54:56.944Z,101445.53
2018-01-27T00:57:24.418Z,101443.24
2018-01-27T00:59:51.832Z,101445.84
2018-01-27T01:02:19.250Z,101448.65
2018-01-27T01:04:46.665Z,101446.00
2018-01-27T01:07:14.489Z,101446.42
2018-01-27T01:09:41.900Z,101442.83
2018-01-27T01:12:13.788Z,101449.78
2018-01-27T01:14:41.197Z,101443.45
2018-01-27T01:17:08.618Z,101441.37
2018-01-27T01:19:36.021Z,101446.56
2018-01-27T01:22:03.445Z,101451.24
2018-01-27T01:24:30.853Z,101451.92
2018-01-27T01:26:58.269Z,101462.39
2018-01-27T01:29:25.680Z,101462.39
2018-01-27T01:31:53.101Z,101464.46
2018-01-27T01:34:20.520Z,101466.58
2018-01-27T01:36:47.932Z,101462.73
2018-01-27T01:39:15.368Z,101465.95
2018-01-27T01:41:42.781Z,101467.28
2018-01-27T01:44:15.733Z,101470.92
2018-01-27T01:46:43.136Z,101471.50
2018-01-27T01:49:22.432Z,101461.59
2018-01-27T01:51:49.837Z,101468.12
2018-01-27T01:54:17.249Z,101464.09
2018-01-27T01:56:44.676Z,101466.63
2018-01-27T01:59:12.088Z,101468.06
2018-01-27T02:01:39.522Z,101468.99
2018-01-27T02:04:06.933Z,101467.41
2018-01-27T02:06:34.365Z,101463.00
2018-01-27T02:09:01.785Z,101457.95
2018-01-27T02:11:29.196Z,101463.67
2018-01-27T02:13:56.620Z,101466.67
2018-01-27T02:16:24.028Z,101484.59
2018-01-27T02:18:51.436Z,101483.52
2018-01-27T02:21:18.856Z,101482.88
2018-01-27T02:23:46.266Z,101475.92
2018-01-27T02:26:13.708Z,101478.45
2018-01-27T02:28:41.117Z,101486.20
2018-01-27T02:31:08.521Z,101479.75
2018-01-27T02:33:35.944Z,101489.02
2018-01-27T02:36:03.353Z,101487.80
2018-01-27T02:38:30.765Z,101492.36
2018-01-27T02:40:58.188Z,101484.51
2018-01-27T02:43:25.604Z,101484.34
2018-01-27T02:45:53.036Z,101483.22
2018-01-27T02:48:20.442Z,101484.17
2018-01-27T02:50:47.857Z,101486.22
2018-01-27T02:53:15.261Z,101492.67
2018-01-27T02:55:42.670Z,101493.45
2018-01-27T02:58:10.078Z,101493.59
2018-01-27T03:00:37.509Z,101496.02
2018-01-27T03:03:04.912Z,101498.50
2018-01-27T03:05:32.337Z,101500.64
2018-01-27T03:07:59.769Z,101501.40
2018-01-27T03:10:27.188Z,101503.96
2018-01-27T03:12:54.598Z,101513.42
2018-01-27T03:15:22.021Z,101513.51
2018-01-27T03:17:49.429Z,101516.83
2018-01-27T03:20:16.854Z,101525.59
2018-01-27T03:22:44.260Z,101525.10
2018-01-27T03:25:11.670Z,101537.72
2018-01-27T03:27:39.079Z,101526.91
2018-01-27T03:30:06.514Z,101530.44
2018-01-27T03:32:33.921Z,101531.45
2018-01-27T03:35:01.330Z,101532.73
2018-01-27T03:37:28.744Z,101530.87
2018-01-27T03:39:56.152Z,101535.63
2018-01-27T03:42:23.580Z,101536.84
2018-01-27T03:44:50.996Z,101542.73
2018-01-27T03:47:18.418Z,101547.80
2018-01-27T03:49:45.826Z,101544.50
2018-01-27T03:52:13.272Z,101545.55
2018-01-27T03:54:40.686Z,101548.62
2018-01-27T03:57:08.088Z,101550.67
2018-01-27T03:59:35.509Z,101554.63
2018-01-27T04:02:02.937Z,101556.20
2018-01-27T04:04:30.344Z,101554.31
2018-01-27T04:06:57.768Z,101563.27
2018-01-27T04:09:25.173Z,101564.26
2018-01-27T04:11:52.580Z,101568.53
2018-01-27T04:14:20.013Z,101580.08
2018-01-27T04:16:47.425Z,101583.09
2018-01-27T04:19:14.836Z,101590.67
2018-01-27T04:21:42.262Z,101595.46
2018-01-27T04:24:09.693Z,101598.11
2018-01-27T04:26:37.094Z,101597.80
2018-01-27T04:29:04.513Z,101596.48
2018-01-27T04:31:31.917Z,101602.03
2018-01-27T04:33:59.329Z,101610.00
2018-01-27T04:36:26.761Z,101618.97
2018-01-27T04:38:54.173Z,101615.55
2018-01-27T04:41:21.599Z,101613.67
2018-01-27T04:43:49.013Z,101609.14
2018-01-27T04:46:16.417Z,101617.00
2018-01-27T04:48:43.829Z,101615.89
2018-01-27T04:51:11.248Z,101626.69
2018-01-27T04:53:38.673Z,101632.87
2018-01-27T04:56:06.093Z,101638.00
2018-01-27T04:58:33.517Z,101637.09
2018-01-27T05:01:00.925Z,101645.72
2018-01-27T05:03:28.351Z,101651.64
2018-01-27T05:05:55.774Z,101654.80
2018-01-27T05:08:23.235Z,101656.72
2018-01-27T05:10:50.629Z,101655.11
2018-01-27T05:13:18.071Z,101649.22
2018-01-27T05:15:45.477Z,101659.37
2018-01-27T05:18:12.900Z,101659.76
2018-01-27T05:20:40.328Z,101664.36
2018-01-27T05:23:07.745Z,101668.59
2018-01-27T05:25:35.150Z,101671.68
2018-01-27T05:28:02.579Z,101681.37
2018-01-27T05:30:29.987Z,101677.83
2018-01-27T05:32:57.393Z,101691.85
2018-01-27T05:35:24.817Z,101693.64
2018-01-27T05:37:52.224Z,101702.44
2018-01-27T05:40:19.643Z,101698.17
2018-01-27T05:42:47.065Z,101696.37
2018-01-27T05:45:14.468Z,101695.81
2018-01-27T05:47:41.881Z,101704.91
2018-01-27T05:50:09.305Z,101704.52
2018-01-27T05:52:36.743Z,101706.41
2018-01-27T05:55:04.154Z,101709.75
2018-01-27T05:57:31.576Z,101713.20
2018-01-27T05:59:58.988Z,101710.31
2018-01-27T06:02:26.392Z,101711.30
2018-01-27T06:04:53.813Z,101707.97
2018-01-27T06:07:21.221Z,101715.14
2018-01-27T06:09:48.639Z,101716.64
2018-01-27T06:12:16.061Z,101723.48
2018-01-27T06:14:43.657Z,101723.31
2018-01-27T06:17:11.061Z,101728.75
2018-01-27T06:19:38.493Z,101726.83
2018-01-27T06:22:05.909Z,101720.25
2018-01-27T06:24:33.328Z,101716.38
2018-01-27T06:27:00.754Z,101722.13
2018-01-27T06:29:28.156Z,101722.79
2018-01-27T06:31:55.573Z,101725.42
2018-01-27T06:34:23.003Z,101730.73
2018-01-27T06:36:50.409Z,101734.22
2018-01-27T06:39:17.817Z,101741.30
2018-01-27T06:41:45.240Z,101737.33
2018-01-27T06:44:12.688Z,101752.12
2018-01-27T06:46:40.117Z,101756.51
2018-01-27T06:49:07.537Z,101761.88
2018-01-27T06:51:34.948Z,101771.20
2018-01-27T06:54:02.365Z,101770.94
2018-01-27T06:56:29.803Z,101777.00
2018-01-27T06:58:57.209Z,101781.06
2018-01-27T07:01:24.628Z,101784.14
2018-01-27T07:03:52.057Z,101788.44
2018-01-27T07:06:19.464Z,101788.70
2018-01-27T07:08:46.876Z,101792.30
2018-01-27T07:11:14.296Z,101788.69
2018-01-27T07:13:41.705Z,101798.55
2018-01-27T07:16:09.117Z,101796.30
2018-01-27T07:18:36.544Z,101807.50
2018-01-27T07:21:04.124Z,101800.16
2018-01-27T07:23:31.605Z,101812.89
2018-01-27T07:25:59.077Z,101811.61
2018-01-27T07:28:26.539Z,101816.69
2018-01-27T07:30:53.951Z,101821.91
2018-01-27T07:33:21.376Z,101828.66
2018-01-27T07:35:48.781Z,101830.88
2018-01-27T07:38:16.201Z,101826.39
2018-01-27T07:40:43.621Z,101818.30
2018-01-27T07:43:11.028Z,101830.83
2018-01-27T07:45:38.449Z,101837.92
2018-01-27T07:48:05.876Z,101829.97
2018-01-27T07:50:33.284Z,101831.62
2018-01-27T07:53:00.697Z,101835.73
2018-01-27T07:55:28.128Z,101844.41
2018-01-27T07:57:55.555Z,101844.79
2018-01-27T08:00:22.993Z,101850.82
2018-01-27T08:02:51.280Z,101858.62
2018-01-27T08:05:18.677Z,101860.55
2018-01-27T08:07:46.089Z,101868.42
2018-01-27T08:10:13.505Z,101866.16
2018-01-27T08:12:40.971Z,101870.89
2018-01-27T08:15:08.338Z,101871.59
2018-01-27T08:17:35.777Z,101870.56
2018-01-27T08:20:03.197Z,101865.27
2018-01-27T08:22:30.603Z,101871.55
2018-01-27T08:24:58.056Z,101872.09
2018-01-27T08:27:25.469Z,101868.59
2018-01-27T08:29:52.870Z,101863.20
2018-01-27T08:32:20.421Z,101872.14
2018-01-27T08:34:47.833Z,101872.73
2018-01-27T08:37:15.253Z,101877.18
2018-01-27T08:39:42.704Z,101880.94
2018-01-27T08:42:10.115Z,101872.43
2018-01-27T08:44:37.520Z,101872.08
2018-01-27T08:47:04.953Z,101871.53
2018-01-27T08:49:32.389Z,101869.23
2018-01-27T08:51:59.817Z,101862.30
2018-01-27T08:54:27.230Z,101859.84
2018-01-27T08:56:54.637Z,101860.82
2018-01-27T08:59:22.049Z,101848.52
2018-01-27T09:01:49.473Z,101844.84
2018-01-27T09:04:16.887Z,101840.19
2018-01-27T09:06:44.296Z,101846.38
2018-01-27T09:09:11.721Z,101843.17
2018-01-27T09:11:39.129Z,101853.05
2018-01-27T09:14:06.592Z,101856.80
2018-01-27T09:16:34.016Z,101851.83
2018-01-27T09:19:01.429Z,101861.47
2018-01-27T09:21:29.452Z,101864.67
2018-01-27T09:23:57.001Z,101872.00
2018-01-27T09:26:25.018Z,101873.21
2018-01-27T09:28:52.495Z,101872.72
2018-01-27T09:31:21.673Z,101869.73
2018-01-27T09:33:49.355Z,101870.34
2018-01-27T09:36:16.774Z,101873.76
2018-01-27T09:38:44.214Z,101877.47
2018-01-27T09:41:11.703Z,101886.64
2018-01-27T09:43:41.166Z,101890.98
2018-01-27T09:46:08.710Z,101886.16
2018-01-27T09:48:36.152Z,101882.89
2018-01-27T09:51:03.580Z,101883.77
2018-01-27T09:53:31.020Z,101879.27
2018-01-27T09:55:58.460Z,101884.35
2018-01-27T09:58:25.881Z,101880.14
2018-01-27T10:01:01.080Z,101879.08
2018-01-27T10:03:28.481Z,101891.46
2018-01-27T10:05:55.893Z,101897.95
2018-01-27T10:08:23.313Z,101896.25
2018-01-27T10:10:50.724Z,101897.14
2018-01-27T10:13:18.145Z,101888.98
2018-01-27T10:15:45.581Z,101888.80
2018-01-27T10:18:12.990Z,101881.63
2018-01-27T10:20:40.403Z,101883.91
2018-01-27T10:23:07.824Z,101889.59
2018-01-27T10:25:35.238Z,101892.08
2018-01-27T10:28:02.662Z,101896.23
2018-01-27T10:30:30.084Z,101890.59
2018-01-27T10:32:57.561Z,101891.59
2018-01-27T10:35:25.301Z,101889.66
2018-01-27T10:37:52.826Z,101881.52
2018-01-27T10:40:20.250Z,101872.44
2018-01-27T10:42:47.668Z,101871.94
2018-01-27T10:45:15.104Z,101882.84
2018-01-27T10:47:42.513Z,101886.03
2018-01-27T10:50:09.936Z,101886.34
2018-01-27T10:52:37.377Z,101883.19
2018-01-27T10:55:04.796Z,101884.13
2018-01-27T10:57:32.212Z,101884.86
2018-01-27T10:59:59.648Z,101876.61
2018-01-27T11:02:27.065Z,101886.67
2018-01-27T11:04:54.477Z,101885.58
2018-01-27T11:07:21.901Z,101883.77
2018-01-27T11:09:49.319Z,101892.92
2018-01-27T11:12:16.724Z,101893.73
2018-01-27T11:14:44.148Z,101891.59
2018-01-27T11:17:11.565Z,101892.13
2018-01-27T11:19:39.014Z,101888.61
2018-01-27T11:22:06.718Z,101892.74
2018-01-27T11:24:34.728Z,101891.74
2018-01-27T11:27:02.138Z,101895.19
2018-01-27T11:29:29.565Z,101888.66
2018-01-27T11:31:57.894Z,101890.24
2018-01-27T11:34:25.309Z,101890.94
2018-01-27T11:36:52.751Z,101888.95
2018-01-27T11:39:20.177Z,101879.62
2018-01-27T11:41:47.592Z,101887.53
2018-01-27T11:44:15.045Z,101892.09
2018-01-27T11:46:42.471Z,101892.09
2018-01-27T11:49:09.877Z,101888.53
2018-01-27T11:51:37.361Z,101882.27
2018-01-27T11:54:04.779Z,101878.95
2018-01-27T11:56:32.194Z,101868.88
2018-01-27T11:58:59.632Z,101866.03
2018-01-27T12:01:27.036Z,101866.38
2018-01-27T12:03:54.454Z,101857.30
2018-01-27T12:06:21.876Z,101864.55
2018-01-27T12:08:49.288Z,101867.97
2018-01-27T12:11:16.704Z,101870.80
2018-01-27T12:13:44.156Z,101868.70
2018-01-27T12:16:11.570Z,101860.98
2018-01-27T12:18:38.983Z,101852.95
2018-01-27T12:21:06.426Z,101843.73
2018-01-27T12:23:33.860Z,101840.81
2018-01-27T12:26:01.276Z,101834.30
2018-01-27T12:28:28.810Z,101826.94
2018-01-27T12:30:56.213Z,101825.58
2018-01-27T12:33:23.634Z,101826.70
2018-01-27T12:35:51.075Z,101822.21
2018-01-27T12:38:18.481Z,101811.75
2018-01-27T12:40:45.894Z,101810.70
2018-01-27T12:43:13.342Z,101801.98
2018-01-27T12:45:40.754Z,101799.95
2018-01-27T12:48:08.162Z,101788.00
2018-01-27T12:50:35.595Z,101779.12
2018-01-27T12:53:03.016Z,101776.16
2018-01-27T12:55:30.424Z,101766.19
2018-01-27T12:57:57.852Z,101768.34
2018-01-27T13:00:25.269Z,101765.66
2018-01-27T13:02:52.690Z,101766.20
2018-01-27T13:05:20.109Z,101775.16
2018-01-27T13:07:47.524Z,101772.99
2018-01-27T13:10:14.942Z,101768.80
2018-01-27T13:12:42.389Z,101775.08
2018-01-27T13:15:09.822Z,101775.50
2018-01-27T13:17:37.241Z,101781.75
2018-01-27T13:20:04.668Z,101770.20
2018-01-27T13:22:32.076Z,101762.25
2018-01-27T13:24:59.488Z,101760.86
2018-01-27T13:27:26.906Z,101758.19
2018-01-27T13:29:54.321Z,101751.92
2018-01-27T13:32:21.733Z,101751.44
2018-01-27T13:34:49.171Z,101749.02
2018-01-27T13:37:16.597Z,101745.53
2018-01-27T13:39:44.015Z,101744.89
2018-01-27T13:42:11.445Z,101741.91
2018-01-27T13:44:38.857Z,101737.09
2018-01-27T13:47:06.276Z,101739.78
2018-01-27T13:49:33.720Z,101742.55
2018-01-27T13:52:01.126Z,101753.66
2018-01-27T13:54:28.540Z,101757.81
2018-01-27T13:56:55.976Z,101767.74
2018-01-27T13:59:23.401Z,101764.77
2018-01-27T14:01:50.823Z,101758.84
2018-01-27T14:04:18.236Z,101760.63
2018-01-27T14:06:45.648Z,101754.58
2018-01-27T14:09:13.068Z,101748.95
2018-01-27T14:11:40.496Z,101752.57
2018-01-27T14:14:08.280Z,101755.47
2018-01-27T14:16:35.680Z,101754.02
2018-01-27T14:19:03.141Z,101759.17
2018-01-27T14:21:30.568Z,101775.30
2018-01-27T14:23:57.977Z,101776.12
2018-01-27T14:26:26.041Z,101788.27
2018-01-27T14:28:53.457Z,101796.57
2018-01-27T14:31:20.910Z,101805.95
2018-01-27T14:33:48.344Z,101794.16
2018-01-27T14:36:15.761Z,101796.14
2018-01-27T14:38:44.061Z,101792.92
2018-01-27T14:41:13.073Z,101793.39
2018-01-27T14:43:42.907Z,101790.32
2018-01-27T14:46:11.441Z,101782.98
2018-01-27T14:48:40.916Z,101787.58
2018-01-27T14:51:09.518Z,101793.18
2018-01-27T14:53:37.724Z,101791.12
2018-01-27T14:56:05.952Z,101789.54
2018-01-27T14:58:36.317Z,101771.84
2018-01-27T15:01:04.582Z,101768.24
2018-01-27T15:03:32.895Z,101772.92
2018-01-27T15:06:03.140Z,101773.10
2018-01-27T15:08:32.981Z,101780.02
2018-01-27T15:11:04.371Z,101779.09
2018-01-27T15:13:31.868Z,101780.70
2018-01-27T15:15:59.281Z,101786.27
2018-01-27T15:18:26.697Z,101782.09
2018-01-27T15:20:54.105Z,101768.13
2018-01-27T15:23:21.521Z,101765.05
2018-01-27T15:25:48.954Z,101762.39
2018-01-27T15:28:16.361Z,101764.17
2018-01-27T15:30:43.766Z,101769.91
2018-01-27T15:33:11.188Z,101757.19
2018-01-27T15:35:38.609Z,101750.89
2018-01-27T15:38:06.017Z,101738.78
2018-01-27T15:40:33.445Z,101732.75
2018-01-27T15:43:00.865Z,101742.34
2018-01-27T15:45:28.285Z,101741.86
2018-01-27T15:47:55.701Z,101745.33
2018-01-27T15:50:23.105Z,101742.17
2018-01-27T15:52:51.783Z,101740.73
2018-01-27T15:55:19.199Z,101738.67
2018-01-27T15:57:46.609Z,101740.62
2018-01-27T16:00:14.025Z,101744.78
2018-01-27T16:02:41.456Z,101745.01
2018-01-27T16:05:08.865Z,101749.54
2018-01-27T16:07:36.277Z,101750.00
2018-01-27T16:10:03.753Z,101751.64
2018-01-27T16:12:31.168Z,101752.58
2018-01-27T16:14:58.577Z,101748.61
2018-01-27T16:17:25.992Z,101743.42
2018-01-27T16:19:53.405Z,101749.16
2018-01-27T16:22:20.817Z,101752.38
2018-01-27T16:24:48.246Z,101742.42
2018-01-27T16:27:15.657Z,101750.55
2018-01-27T16:29:43.065Z,101743.86
2018-01-27T16:32:10.501Z,101745.22
2018-01-27T16:34:37.909Z,101739.80
2018-01-27T16:37:05.310Z,101748.91
2018-01-27T16:39:32.730Z,101756.59
2018-01-27T16:42:00.137Z,101770.62
2018-01-27T16:44:27.558Z,101766.06
2018-01-27T16:46:54.980Z,101762.53
2018-01-27T16:49:22.393Z,101771.33
2018-01-27T16:51:49.798Z,101774.67
2018-01-27T16:54:17.228Z,101775.97
2018-01-27T16:56:44.633Z,101777.90
2018-01-27T16:59:12.042Z,101781.75
2018-01-27T17:01:39.477Z,101789.84
2018-01-27T17:04:06.881Z,101790.31
2018-01-27T17:06:34.317Z,101780.84
2018-01-27T17:09:01.733Z,101784.30
2018-01-27T17:11:29.153Z,101779.91
2018-01-27T17:13:56.560Z,101774.48
2018-01-27T17:16:23.992Z,101764.83
2018-01-27T17:18:51.689Z,101765.39
2018-01-27T17:21:19.080Z,101763.17
2018-01-27T17:23:46.511Z,101764.75
2018-01-27T17:26:13.924Z,101763.60
2018-01-27T17:28:41.332Z,101759.16
2018-01-27T17:31:08.780Z,101759.25
2018-01-27T17:33:36.189Z,101755.16
2018-01-27T17:36:03.602Z,101745.97
2018-01-27T17:38:31.044Z,101735.63
2018-01-27T17:40:58.452Z,101735.97
2018-01-27T17:43:25.872Z,101736.75
2018-01-27T17:45:53.297Z,101743.19
2018-01-27T17:48:20.702Z,101749.52
2018-01-27T17:50:48.117Z,101755.02
2018-01-27T17:53:15.544Z,101756.72
2018-01-27T17:55:42.965Z,101762.48
2018-01-27T17:58:10.369Z,101772.43
2018-01-27T18:00:38.062Z,101772.13
2018-01-27T18:03:05.483Z,101760.98
2018-01-27T18:05:32.908Z,101741.69
2018-01-27T18:08:00.312Z,101727.48
2018-01-27T18:10:27.721Z,101724.36
2018-01-27T18:12:55.137Z,101722.48
2018-01-27T18:15:22.552Z,101718.52
2018-01-27T18:17:49.964Z,101723.80
2018-01-27T18:20:17.377Z,101722.66
2018-01-27T18:22:44.797Z,101731.31
2018-01-27T18:25:12.213Z,101744.25
2018-01-27T18:27:39.621Z,101767.30
2018-01-27T18:30:07.046Z,101774.55
2018-01-27T18:32:34.458Z,101756.24
2018-01-27T18:35:01.866Z,101731.14
2018-01-27T18:37:29.297Z,101714.84
2018-01-27T18:39:56.713Z,101711.45
2018-01-27T18:42:24.122Z,101709.08
2018-01-27T18:44:51.553Z,101714.79
2018-01-27T18:47:19.008Z,101714.28
2018-01-27T18:49:46.422Z,101717.87
2018-01-27T18:52:13.853Z,101721.27
2018-01-27T18:54:41.274Z,101721.27
2018-01-27T18:57:08.691Z,101726.27
2018-01-27T18:59:36.113Z,101729.77
2018-01-27T19:02:03.517Z,101742.41
2018-01-27T19:04:30.929Z,101734.55
2018-01-27T19:06:58.357Z,101728.28
2018-01-27T19:09:25.764Z,101722.94
2018-01-27T19:11:53.178Z,101721.58
2018-01-27T19:14:20.600Z,101716.80
2018-01-27T19:16:48.018Z,101716.29
2018-01-27T19:19:15.417Z,101708.95
2018-01-27T19:21:42.860Z,101700.55
2018-01-27T19:24:10.265Z,101696.49
2018-01-27T19:26:37.681Z,101693.07
2018-01-27T19:29:05.094Z,101693.16
2018-01-27T19:31:32.496Z,101678.73
2018-01-27T19:33:59.913Z,101679.25
2018-01-27T19:36:27.340Z,101678.52
2018-01-27T19:38:54.761Z,101679.08
2018-01-27T19:41:22.172Z,101691.16
2018-01-27T19:43:49.625Z,101680.70
2018-01-27T19:46:17.036Z,101676.86
2018-01-27T19:48:44.454Z,101669.66
2018-01-27T19:51:11.885Z,101674.17
2018-01-27T19:53:39.293Z,101673.95
2018-01-27T19:56:06.708Z,101673.23
2018-01-27T19:58:34.146Z,101674.17
2018-01-27T20:01:01.553Z,101662.48
2018-01-27T20:03:28.978Z,101655.09
2018-01-27T20:05:56.409Z,101655.14
2018-01-27T20:08:23.901Z,101658.69
2018-01-27T20:10:51.304Z,101659.02
2018-01-27T20:13:18.726Z,101660.38
2018-01-27T20:15:46.129Z,101656.67
2018-01-27T20:18:13.541Z,101655.69
2018-01-27T20:20:40.992Z,101653.47
2018-01-27T20:23:08.397Z,101645.96
2018-01-27T20:25:35.813Z,101640.33
2018-01-27T20:28:03.257Z,101638.80
2018-01-27T20:30:30.666Z,101630.09
2018-01-27T20:32:58.081Z,101632.35
2018-01-27T20:35:25.501Z,101630.56
2018-01-27T20:37:52.913Z,101629.19
2018-01-27T20:40:20.317Z,101631.49
2018-01-27T20:42:47.745Z,101632.69
2018-01-27T20:45:15.151Z,101634.56
2018-01-27T20:47:42.557Z,101634.31
2018-01-27T20:50:09.985Z,101632.91
2018-01-27T20:52:37.399Z,101625.52
2018-01-27T20:55:04.810Z,101631.03
2018-01-27T20:57:32.244Z,101626.92
2018-01-27T20:59:59.653Z,101641.39
2018-01-27T21:02:27.061Z,101649.75
2018-01-27T21:04:54.496Z,101648.60
2018-01-27T21:07:21.905Z,101652.52
2018-01-27T21:09:49.313Z,101667.00
2018-01-27T21:12:16.740Z,101658.67
2018-01-27T21:14:44.153Z,101667.03
2018-01-27T21:17:11.575Z,101669.84
2018-01-27T21:19:39.009Z,101672.10
2018-01-27T21:22:06.425Z,101674.50
2018-01-27T21:24:33.838Z,101671.52
2018-01-27T21:27:01.264Z,101666.61
2018-01-27T21:29:28.668Z,101663.66
2018-01-27T21:31:56.078Z,101653.58
2018-01-27T21:34:23.508Z,101656.73
2018-01-27T21:36:50.921Z,101649.28
2018-01-27T21:39:18.332Z,101658.28
2018-01-27T21:41:45.761Z,101647.77
2018-01-27T21:44:13.178Z,101645.81
2018-01-27T21:46:40.584Z,101637.48
2018-01-27T21:49:08.014Z,101628.21
2018-01-27T21:51:35.421Z,101627.84
2018-01-27T21:54:02.833Z,101630.44
2018-01-27T21:56:30.253Z,101625.14
2018-01-27T21:58:57.670Z,101629.36
2018-01-27T22:01:25.070Z,101637.73
2018-01-27T22:03:52.497Z,101644.81
2018-01-27T22:06:19.901Z,101646.22
2018-01-27T22:08:47.310Z,101652.45
2018-01-27T22:11:14.745Z,101641.22
2018-01-27T22:13:42.157Z,101645.34
2018-01-27T22:16:09.569Z,101645.88
2018-01-27T22:18:36.989Z,101642.97
2018-01-27T22:21:04.421Z,101643.22
2018-01-27T22:23:31.849Z,101644.95
2018-01-27T22:25:59.290Z,101637.05
2018-01-27T22:28:26.720Z,101642.26
2018-01-27T22:30:54.127Z,101649.81
2018-01-27T22:33:21.554Z,101651.63
2018-01-27T22:35:48.972Z,101646.46
2018-01-27T22:38:17.416Z,101660.15
2018-01-27T22:40:44.901Z,101655.08
2018-01-27T22:43:12.252Z,101657.95
2018-01-27T22:45:39.664Z,101656.73
2018-01-27T22:48:07.084Z,101649.97
2018-01-27T22:50:34.492Z,101663.13
2018-01-27T22:53:01.901Z,101663.97
2018-01-27T22:55:29.334Z,101672.26
2018-01-27T22:57:56.748Z,101671.08
2018-01-27T23:00:24.171Z,101656.75
2018-01-27T23:02:51.585Z,101650.02
2018-01-27T23:05:19.005Z,101644.83
2018-01-27T23:07:46.427Z,101637.08
2018-01-27T23:10:13.856Z,101632.22
2018-01-27T23:12:41.264Z,101621.39
2018-01-27T23:15:08.682Z,101633.75
2018-01-27T23:17:36.106Z,101632.89
2018-01-27T23:20:03.527Z,101643.36
2018-01-27T23:22:30.999Z,101647.57
2018-01-27T23:24:58.435Z,101647.91
2018-01-27T23:27:25.840Z,101645.17
2018-01-27T23:29:53.265Z,101638.00
2018-01-27T23:32:20.696Z,101635.08
2018-01-27T23:34:48.121Z,101638.64
2018-01-27T23:37:15.524Z,101628.08
2018-01-27T23:39:42.958Z,101624.92
2018-01-27T23:42:10.377Z,101627.28
2018-01-27T23:44:37.794Z,101636.48
2018-01-27T23:47:05.218Z,101633.56
2018-01-27T23:49:32.617Z,101629.36
2018-01-27T23:52:00.035Z,101633.45
2018-01-27T23:54:27.448Z,101637.00
2018-01-27T23:56:54.858Z,101638.80
2018-01-27T23:59:22.269Z,101635.81
